sensor_id;sensor_type;location;lat;lon;timestamp;P1;durP1;ratioP1;P2;durP2;ratioP2
9563;SDS011;4820;50.870;4.702;2023-02-23T00:00:26;51.25;;;38.38;;
9563;SDS011;4820;50.870;4.702;2023-02-23T00:02:57;51.17;;;37.55;;
9563;SDS011;4820;50.870;4.702;2023-02-23T00:05:29;51.15;;;37.67;;
9563;SDS011;4820;50.870;4.702;2023-02-23T00:07:56;48.22;;;37.80;;
9563;SDS011;4820;50.870;4.702;2023-02-23T00:10:21;45.70;;;36.50;;
9563;SDS011;4820;50.870;4.702;2023-02-23T00:12:54;46.90;;;37.28;;
9563;SDS011;4820;50.870;4.702;2023-02-23T00:15:21;52.03;;;38.03;;
9563;SDS011;4820;50.870;4.702;2023-02-23T00:17:51;49.70;;;37.47;;
9563;SDS011;4820;50.870;4.702;2023-02-23T00:20:18;47.42;;;36.15;;
9563;SDS011;4820;50.870;4.702;2023-02-23T00:22:49;46.97;;;36.38;;
9563;SDS011;4820;50.870;4.702;2023-02-23T00:25:17;48.55;;;37.22;;
9563;SDS011;4820;50.870;4.702;2023-02-23T00:27:43;45.92;;;35.75;;
9563;SDS011;4820;50.870;4.702;2023-02-23T00:30:13;47.40;;;35.70;;
9563;SDS011;4820;50.870;4.702;2023-02-23T00:32:42;49.20;;;38.05;;
9563;SDS011;4820;50.870;4.702;2023-02-23T00:35:08;47.60;;;37.13;;
9563;SDS011;4820;50.870;4.702;2023-02-23T00:37:45;47.17;;;37.10;;
9563;SDS011;4820;50.870;4.702;2023-02-23T00:40:13;47.72;;;36.47;;
9563;SDS011;4820;50.870;4.702;2023-02-23T00:42:40;49.67;;;36.83;;
9563;SDS011;4820;50.870;4.702;2023-02-23T00:45:11;46.35;;;36.92;;
9563;SDS011;4820;50.870;4.702;2023-02-23T00:47:38;46.40;;;36.28;;
9563;SDS011;4820;50.870;4.702;2023-02-23T00:50:07;43.90;;;35.30;;
9563;SDS011;4820;50.870;4.702;2023-02-23T00:52:37;45.03;;;37.00;;
9563;SDS011;4820;50.870;4.702;2023-02-23T00:55:05;45.63;;;36.38;;
9563;SDS011;4820;50.870;4.702;2023-02-23T00:57:35;45.38;;;36.90;;
9563;SDS011;4820;50.870;4.702;2023-02-23T01:00:02;45.42;;;37.75;;
9563;SDS011;4820;50.870;4.702;2023-02-23T01:02:37;43.95;;;35.08;;
9563;SDS011;4820;50.870;4.702;2023-02-23T01:05:03;42.55;;;34.30;;
9563;SDS011;4820;50.870;4.702;2023-02-23T01:07:29;46.45;;;37.72;;
9563;SDS011;4820;50.870;4.702;2023-02-23T01:09:54;42.90;;;35.40;;
9563;SDS011;4820;50.870;4.702;2023-02-23T01:12:20;46.35;;;35.95;;
9563;SDS011;4820;50.870;4.702;2023-02-23T01:14:46;42.60;;;34.75;;
9563;SDS011;4820;50.870;4.702;2023-02-23T01:17:11;41.22;;;34.25;;
9563;SDS011;4820;50.870;4.702;2023-02-23T01:19:37;42.78;;;35.38;;
9563;SDS011;4820;50.870;4.702;2023-02-23T01:22:03;44.08;;;34.92;;
9563;SDS011;4820;50.870;4.702;2023-02-23T01:24:29;43.45;;;34.53;;
9563;SDS011;4820;50.870;4.702;2023-02-23T01:26:54;41.55;;;34.50;;
9563;SDS011;4820;50.870;4.702;2023-02-23T01:29:20;41.38;;;33.67;;
9563;SDS011;4820;50.870;4.702;2023-02-23T01:31:46;42.33;;;34.50;;
9563;SDS011;4820;50.870;4.702;2023-02-23T01:34:15;44.35;;;35.05;;
9563;SDS011;4820;50.870;4.702;2023-02-23T01:36:41;40.38;;;33.85;;
9563;SDS011;4820;50.870;4.702;2023-02-23T01:39:13;41.60;;;33.35;;
9563;SDS011;4820;50.870;4.702;2023-02-23T01:41:40;40.70;;;33.38;;
9563;SDS011;4820;50.870;4.702;2023-02-23T01:46:38;38.38;;;32.85;;
9563;SDS011;4820;50.870;4.702;2023-02-23T01:49:07;37.67;;;31.77;;
9563;SDS011;4820;50.870;4.702;2023-02-23T01:52:03;38.47;;;32.55;;
9563;SDS011;4820;50.870;4.702;2023-02-23T01:54:32;40.03;;;31.92;;
9563;SDS011;4820;50.870;4.702;2023-02-23T01:57:02;39.45;;;32.13;;
9563;SDS011;4820;50.870;4.702;2023-02-23T02:02:02;37.78;;;31.83;;
9563;SDS011;4820;50.870;4.702;2023-02-23T02:04:29;37.88;;;31.58;;
9563;SDS011;4820;50.870;4.702;2023-02-23T02:07:02;37.15;;;32.17;;
9563;SDS011;4820;50.870;4.702;2023-02-23T02:09:28;33.42;;;29.02;;
9563;SDS011;4820;50.870;4.702;2023-02-23T02:12:01;39.65;;;32.67;;
9563;SDS011;4820;50.870;4.702;2023-02-23T02:14:32;36.65;;;30.98;;
9563;SDS011;4820;50.870;4.702;2023-02-23T02:17:05;37.17;;;31.08;;
9563;SDS011;4820;50.870;4.702;2023-02-23T02:31:30;34.60;;;29.02;;
9563;SDS011;4820;50.870;4.702;2023-02-23T02:42:41;31.67;;;28.15;;
9563;SDS011;4820;50.870;4.702;2023-02-23T02:48:26;32.55;;;28.23;;
9563;SDS011;4820;50.870;4.702;2023-02-23T02:53:17;32.42;;;27.33;;
9563;SDS011;4820;50.870;4.702;2023-02-23T02:55:53;31.02;;;27.13;;
9563;SDS011;4820;50.870;4.702;2023-02-23T02:58:20;30.05;;;26.08;;
9563;SDS011;4820;50.870;4.702;2023-02-23T03:00:49;29.45;;;26.25;;
9563;SDS011;4820;50.870;4.702;2023-02-23T03:18:31;32.58;;;26.48;;
9563;SDS011;4820;50.870;4.702;2023-02-23T03:24:57;28.73;;;25.45;;
9563;SDS011;4820;50.870;4.702;2023-02-23T03:27:51;31.38;;;25.60;;
9563;SDS011;4820;50.870;4.702;2023-02-23T03:31:08;35.88;;;26.52;;
9563;SDS011;4820;50.870;4.702;2023-02-23T03:34:16;42.00;;;28.60;;
9563;SDS011;4820;50.870;4.702;2023-02-23T03:37:12;53.22;;;29.33;;
9563;SDS011;4820;50.870;4.702;2023-02-23T03:40:07;48.95;;;29.13;;
9563;SDS011;4820;50.870;4.702;2023-02-23T03:42:59;48.63;;;27.35;;
9563;SDS011;4820;50.870;4.702;2023-02-23T03:45:45;48.85;;;28.40;;
9563;SDS011;4820;50.870;4.702;2023-02-23T03:48:32;52.90;;;29.60;;
9563;SDS011;4820;50.870;4.702;2023-02-23T03:51:19;51.10;;;29.67;;
9563;SDS011;4820;50.870;4.702;2023-02-23T03:56:49;54.83;;;30.38;;
9563;SDS011;4820;50.870;4.702;2023-02-23T03:59:40;53.17;;;31.05;;
9563;SDS011;4820;50.870;4.702;2023-02-23T04:02:29;56.17;;;32.22;;
9563;SDS011;4820;50.870;4.702;2023-02-23T04:05:17;58.35;;;32.63;;
9563;SDS011;4820;50.870;4.702;2023-02-23T04:08:04;67.28;;;35.00;;
9563;SDS011;4820;50.870;4.702;2023-02-23T04:11:11;68.35;;;36.65;;
9563;SDS011;4820;50.870;4.702;2023-02-23T04:14:00;70.97;;;36.40;;
9563;SDS011;4820;50.870;4.702;2023-02-23T04:16:31;69.75;;;37.28;;
9563;SDS011;4820;50.870;4.702;2023-02-23T04:18:57;72.55;;;37.90;;
9563;SDS011;4820;50.870;4.702;2023-02-23T04:21:23;75.13;;;40.03;;
9563;SDS011;4820;50.870;4.702;2023-02-23T04:23:49;72.07;;;39.08;;
9563;SDS011;4820;50.870;4.702;2023-02-23T04:26:15;75.30;;;39.63;;
9563;SDS011;4820;50.870;4.702;2023-02-23T04:28:40;77.90;;;40.65;;
9563;SDS011;4820;50.870;4.702;2023-02-23T04:31:06;78.75;;;41.28;;
9563;SDS011;4820;50.870;4.702;2023-02-23T04:33:32;86.13;;;41.25;;
9563;SDS011;4820;50.870;4.702;2023-02-23T04:35:57;76.22;;;40.63;;
9563;SDS011;4820;50.870;4.702;2023-02-23T04:38:23;78.88;;;41.85;;
9563;SDS011;4820;50.870;4.702;2023-02-23T04:40:48;73.35;;;38.38;;
9563;SDS011;4820;50.870;4.702;2023-02-23T04:43:14;73.05;;;39.22;;
9563;SDS011;4820;50.870;4.702;2023-02-23T04:45:40;73.57;;;38.22;;
9563;SDS011;4820;50.870;4.702;2023-02-23T04:48:07;62.05;;;35.00;;
9563;SDS011;4820;50.870;4.702;2023-02-23T04:50:32;54.53;;;30.13;;
9563;SDS011;4820;50.870;4.702;2023-02-23T04:52:58;45.25;;;27.20;;
9563;SDS011;4820;50.870;4.702;2023-02-23T04:55:24;45.17;;;28.25;;
9563;SDS011;4820;50.870;4.702;2023-02-23T04:57:51;39.25;;;24.85;;
9563;SDS011;4820;50.870;4.702;2023-02-23T05:00:21;40.88;;;25.58;;
9563;SDS011;4820;50.870;4.702;2023-02-23T05:02:47;40.40;;;25.23;;
9563;SDS011;4820;50.870;4.702;2023-02-23T05:05:12;41.45;;;24.73;;
9563;SDS011;4820;50.870;4.702;2023-02-23T05:07:38;43.45;;;27.38;;
9563;SDS011;4820;50.870;4.702;2023-02-23T05:10:05;39.30;;;24.80;;
9563;SDS011;4820;50.870;4.702;2023-02-23T05:12:32;38.15;;;25.77;;
9563;SDS011;4820;50.870;4.702;2023-02-23T05:14:57;35.70;;;25.00;;
9563;SDS011;4820;50.870;4.702;2023-02-23T05:17:23;36.17;;;25.55;;
9563;SDS011;4820;50.870;4.702;2023-02-23T05:19:49;36.45;;;26.05;;
9563;SDS011;4820;50.870;4.702;2023-02-23T05:22:16;37.97;;;26.67;;
9563;SDS011;4820;50.870;4.702;2023-02-23T05:24:42;38.50;;;26.55;;
9563;SDS011;4820;50.870;4.702;2023-02-23T05:27:08;37.00;;;24.83;;
9563;SDS011;4820;50.870;4.702;2023-02-23T05:29:37;40.85;;;26.45;;
9563;SDS011;4820;50.870;4.702;2023-02-23T05:32:03;34.83;;;25.73;;
9563;SDS011;4820;50.870;4.702;2023-02-23T05:34:29;39.08;;;26.63;;
9563;SDS011;4820;50.870;4.702;2023-02-23T05:36:55;37.92;;;25.17;;
9563;SDS011;4820;50.870;4.702;2023-02-23T05:39:20;36.15;;;25.00;;
9563;SDS011;4820;50.870;4.702;2023-02-23T05:41:46;37.85;;;25.98;;
9563;SDS011;4820;50.870;4.702;2023-02-23T05:44:12;39.15;;;26.05;;
9563;SDS011;4820;50.870;4.702;2023-02-23T05:46:38;37.47;;;24.40;;
9563;SDS011;4820;50.870;4.702;2023-02-23T05:49:03;35.83;;;24.73;;
9563;SDS011;4820;50.870;4.702;2023-02-23T05:51:30;38.38;;;25.45;;
9563;SDS011;4820;50.870;4.702;2023-02-23T05:53:58;37.00;;;25.10;;
9563;SDS011;4820;50.870;4.702;2023-02-23T05:56:23;35.45;;;25.73;;
9563;SDS011;4820;50.870;4.702;2023-02-23T05:58:50;36.25;;;25.20;;
9563;SDS011;4820;50.870;4.702;2023-02-23T06:01:18;36.45;;;25.38;;
9563;SDS011;4820;50.870;4.702;2023-02-23T06:03:44;33.85;;;24.70;;
9563;SDS011;4820;50.870;4.702;2023-02-23T06:06:11;36.45;;;26.33;;
9563;SDS011;4820;50.870;4.702;2023-02-23T06:08:37;34.80;;;24.83;;
9563;SDS011;4820;50.870;4.702;2023-02-23T06:11:03;34.97;;;26.10;;
9563;SDS011;4820;50.870;4.702;2023-02-23T06:13:29;37.25;;;26.30;;
9563;SDS011;4820;50.870;4.702;2023-02-23T06:15:56;39.10;;;27.60;;
9563;SDS011;4820;50.870;4.702;2023-02-23T06:18:23;35.30;;;25.58;;
9563;SDS011;4820;50.870;4.702;2023-02-23T06:20:49;38.97;;;27.55;;
9563;SDS011;4820;50.870;4.702;2023-02-23T06:23:15;40.38;;;28.55;;
9563;SDS011;4820;50.870;4.702;2023-02-23T06:25:42;44.72;;;29.15;;
9563;SDS011;4820;50.870;4.702;2023-02-23T06:28:08;41.47;;;28.52;;
9563;SDS011;4820;50.870;4.702;2023-02-23T06:30:34;36.95;;;26.33;;
9563;SDS011;4820;50.870;4.702;2023-02-23T06:33:00;39.38;;;28.30;;
9563;SDS011;4820;50.870;4.702;2023-02-23T06:35:26;38.95;;;28.92;;
9563;SDS011;4820;50.870;4.702;2023-02-23T06:37:52;36.97;;;27.00;;
9563;SDS011;4820;50.870;4.702;2023-02-23T06:40:18;36.85;;;26.77;;
9563;SDS011;4820;50.870;4.702;2023-02-23T06:42:45;39.45;;;28.13;;
9563;SDS011;4820;50.870;4.702;2023-02-23T06:45:11;37.05;;;27.13;;
9563;SDS011;4820;50.870;4.702;2023-02-23T06:47:37;36.60;;;27.15;;
9563;SDS011;4820;50.870;4.702;2023-02-23T06:50:04;38.63;;;27.92;;
9563;SDS011;4820;50.870;4.702;2023-02-23T06:52:33;36.97;;;26.48;;
9563;SDS011;4820;50.870;4.702;2023-02-23T06:54:59;39.22;;;27.85;;
9563;SDS011;4820;50.870;4.702;2023-02-23T06:57:25;37.85;;;27.30;;
9563;SDS011;4820;50.870;4.702;2023-02-23T06:59:51;39.03;;;28.50;;
9563;SDS011;4820;50.870;4.702;2023-02-23T07:02:17;41.42;;;28.92;;
9563;SDS011;4820;50.870;4.702;2023-02-23T07:04:43;39.30;;;28.33;;
9563;SDS011;4820;50.870;4.702;2023-02-23T07:07:09;40.67;;;28.73;;
9563;SDS011;4820;50.870;4.702;2023-02-23T07:09:38;41.08;;;29.08;;
9563;SDS011;4820;50.870;4.702;2023-02-23T07:12:04;41.83;;;29.10;;
9563;SDS011;4820;50.870;4.702;2023-02-23T07:14:30;41.05;;;28.25;;
9563;SDS011;4820;50.870;4.702;2023-02-23T07:16:57;41.70;;;29.27;;
9563;SDS011;4820;50.870;4.702;2023-02-23T07:19:23;41.92;;;29.17;;
9563;SDS011;4820;50.870;4.702;2023-02-23T07:21:48;44.40;;;31.35;;
9563;SDS011;4820;50.870;4.702;2023-02-23T07:24:14;41.75;;;30.25;;
9563;SDS011;4820;50.870;4.702;2023-02-23T07:26:40;42.03;;;30.33;;
9563;SDS011;4820;50.870;4.702;2023-02-23T07:29:08;38.33;;;28.75;;
9563;SDS011;4820;50.870;4.702;2023-02-23T07:31:36;41.65;;;30.38;;
9563;SDS011;4820;50.870;4.702;2023-02-23T07:34:02;43.08;;;30.23;;
9563;SDS011;4820;50.870;4.702;2023-02-23T07:36:27;40.95;;;28.92;;
9563;SDS011;4820;50.870;4.702;2023-02-23T07:38:53;43.15;;;31.38;;
9563;SDS011;4820;50.870;4.702;2023-02-23T07:41:19;43.58;;;31.52;;
9563;SDS011;4820;50.870;4.702;2023-02-23T07:43:46;44.88;;;30.65;;
9563;SDS011;4820;50.870;4.702;2023-02-23T07:46:12;47.35;;;32.17;;
9563;SDS011;4820;50.870;4.702;2023-02-23T07:48:39;46.38;;;31.85;;
9563;SDS011;4820;50.870;4.702;2023-02-23T07:51:08;44.05;;;31.05;;
9563;SDS011;4820;50.870;4.702;2023-02-23T07:53:39;43.05;;;30.25;;
9563;SDS011;4820;50.870;4.702;2023-02-23T07:56:05;43.22;;;30.88;;
9563;SDS011;4820;50.870;4.702;2023-02-23T07:58:35;43.95;;;31.58;;
9563;SDS011;4820;50.870;4.702;2023-02-23T08:01:02;49.25;;;33.40;;
9563;SDS011;4820;50.870;4.702;2023-02-23T08:03:28;48.00;;;33.33;;
9563;SDS011;4820;50.870;4.702;2023-02-23T08:05:54;43.45;;;31.67;;
9563;SDS011;4820;50.870;4.702;2023-02-23T08:08:19;50.03;;;33.78;;
9563;SDS011;4820;50.870;4.702;2023-02-23T08:10:46;47.17;;;32.22;;
9563;SDS011;4820;50.870;4.702;2023-02-23T08:13:13;49.85;;;33.17;;
9563;SDS011;4820;50.870;4.702;2023-02-23T08:15:39;45.45;;;32.38;;
9563;SDS011;4820;50.870;4.702;2023-02-23T08:18:05;47.92;;;32.95;;
9563;SDS011;4820;50.870;4.702;2023-02-23T08:20:31;51.42;;;34.47;;
9563;SDS011;4820;50.870;4.702;2023-02-23T08:22:57;49.92;;;33.65;;
9563;SDS011;4820;50.870;4.702;2023-02-23T08:25:23;50.47;;;34.67;;
9563;SDS011;4820;50.870;4.702;2023-02-23T08:27:51;51.53;;;34.90;;
9563;SDS011;4820;50.870;4.702;2023-02-23T08:30:17;48.58;;;33.28;;
9563;SDS011;4820;50.870;4.702;2023-02-23T08:32:45;50.60;;;34.30;;
9563;SDS011;4820;50.870;4.702;2023-02-23T08:35:11;49.30;;;32.80;;
9563;SDS011;4820;50.870;4.702;2023-02-23T08:37:37;49.75;;;33.67;;
9563;SDS011;4820;50.870;4.702;2023-02-23T08:40:03;55.00;;;35.30;;
9563;SDS011;4820;50.870;4.702;2023-02-23T08:42:29;49.80;;;34.33;;
9563;SDS011;4820;50.870;4.702;2023-02-23T08:44:54;56.20;;;35.80;;
9563;SDS011;4820;50.870;4.702;2023-02-23T08:47:21;52.42;;;34.45;;
9563;SDS011;4820;50.870;4.702;2023-02-23T08:49:51;54.30;;;35.45;;
9563;SDS011;4820;50.870;4.702;2023-02-23T08:52:20;55.92;;;36.05;;
9563;SDS011;4820;50.870;4.702;2023-02-23T08:54:46;54.42;;;34.35;;
9563;SDS011;4820;50.870;4.702;2023-02-23T08:57:12;53.55;;;34.63;;
9563;SDS011;4820;50.870;4.702;2023-02-23T08:59:38;52.00;;;35.33;;
9563;SDS011;4820;50.870;4.702;2023-02-23T09:02:05;54.78;;;34.50;;
9563;SDS011;4820;50.870;4.702;2023-02-23T09:04:32;54.85;;;36.20;;
9563;SDS011;4820;50.870;4.702;2023-02-23T09:06:59;55.67;;;36.08;;
9563;SDS011;4820;50.870;4.702;2023-02-23T09:09:25;54.42;;;35.80;;
9563;SDS011;4820;50.870;4.702;2023-02-23T09:11:51;54.92;;;34.63;;
9563;SDS011;4820;50.870;4.702;2023-02-23T09:14:18;54.90;;;33.92;;
9563;SDS011;4820;50.870;4.702;2023-02-23T09:16:44;54.92;;;34.92;;
9563;SDS011;4820;50.870;4.702;2023-02-23T09:19:11;58.13;;;35.83;;
9563;SDS011;4820;50.870;4.702;2023-02-23T09:21:38;52.10;;;33.85;;
9563;SDS011;4820;50.870;4.702;2023-02-23T09:24:03;53.60;;;33.45;;
9563;SDS011;4820;50.870;4.702;2023-02-23T09:26:30;54.25;;;34.28;;
9563;SDS011;4820;50.870;4.702;2023-02-23T09:28:57;52.22;;;34.53;;
9563;SDS011;4820;50.870;4.702;2023-02-23T09:31:25;55.10;;;34.45;;
9563;SDS011;4820;50.870;4.702;2023-02-23T09:33:50;48.72;;;31.88;;
9563;SDS011;4820;50.870;4.702;2023-02-23T09:36:18;50.65;;;33.13;;
9563;SDS011;4820;50.870;4.702;2023-02-23T09:38:47;49.00;;;33.22;;
9563;SDS011;4820;50.870;4.702;2023-02-23T09:44:21;47.22;;;32.00;;
9563;SDS011;4820;50.870;4.702;2023-02-23T09:49:43;46.13;;;31.15;;
9563;SDS011;4820;50.870;4.702;2023-02-23T09:52:14;45.75;;;31.45;;
9563;SDS011;4820;50.870;4.702;2023-02-23T09:54:42;46.85;;;31.30;;
9563;SDS011;4820;50.870;4.702;2023-02-23T09:57:13;44.90;;;30.83;;
9563;SDS011;4820;50.870;4.702;2023-02-23T09:59:42;49.15;;;32.25;;
9563;SDS011;4820;50.870;4.702;2023-02-23T10:05:06;47.65;;;32.33;;
9563;SDS011;4820;50.870;4.702;2023-02-23T10:07:43;47.65;;;31.17;;
9563;SDS011;4820;50.870;4.702;2023-02-23T10:13:22;45.65;;;31.25;;
9563;SDS011;4820;50.870;4.702;2023-02-23T10:18:49;41.35;;;27.77;;
9563;SDS011;4820;50.870;4.702;2023-02-23T10:21:39;47.35;;;29.92;;
9563;SDS011;4820;50.870;4.702;2023-02-23T10:24:11;40.05;;;27.70;;
9563;SDS011;4820;50.870;4.702;2023-02-23T10:26:53;44.72;;;28.52;;
9563;SDS011;4820;50.870;4.702;2023-02-23T10:29:34;38.03;;;27.45;;
9563;SDS011;4820;50.870;4.702;2023-02-23T10:32:33;36.97;;;26.33;;
9563;SDS011;4820;50.870;4.702;2023-02-23T10:35:11;37.22;;;26.15;;
9563;SDS011;4820;50.870;4.702;2023-02-23T10:37:38;37.58;;;26.77;;
9563;SDS011;4820;50.870;4.702;2023-02-23T10:40:04;36.95;;;26.05;;
9563;SDS011;4820;50.870;4.702;2023-02-23T10:42:31;34.40;;;25.20;;
9563;SDS011;4820;50.870;4.702;2023-02-23T10:44:58;34.55;;;25.38;;
9563;SDS011;4820;50.870;4.702;2023-02-23T10:47:25;32.83;;;24.17;;
9563;SDS011;4820;50.870;4.702;2023-02-23T10:49:54;29.95;;;23.15;;
9563;SDS011;4820;50.870;4.702;2023-02-23T10:54:51;32.25;;;23.08;;
9563;SDS011;4820;50.870;4.702;2023-02-23T10:57:21;30.23;;;22.73;;
9563;SDS011;4820;50.870;4.702;2023-02-23T11:02:44;33.67;;;24.02;;
9563;SDS011;4820;50.870;4.702;2023-02-23T11:08:08;30.73;;;22.52;;
9563;SDS011;4820;50.870;4.702;2023-02-23T11:10:59;30.13;;;22.15;;
9563;SDS011;4820;50.870;4.702;2023-02-23T11:16:11;24.20;;;18.83;;
9563;SDS011;4820;50.870;4.702;2023-02-23T11:21:27;22.17;;;16.73;;
9563;SDS011;4820;50.870;4.702;2023-02-23T11:24:12;25.23;;;18.83;;
9563;SDS011;4820;50.870;4.702;2023-02-23T11:26:42;22.50;;;17.77;;
9563;SDS011;4820;50.870;4.702;2023-02-23T11:31:48;20.38;;;16.40;;
9563;SDS011;4820;50.870;4.702;2023-02-23T11:34:19;18.88;;;15.60;;
9563;SDS011;4820;50.870;4.702;2023-02-23T11:36:57;21.42;;;17.33;;
9563;SDS011;4820;50.870;4.702;2023-02-23T11:39:30;21.35;;;16.90;;
9563;SDS011;4820;50.870;4.702;2023-02-23T11:42:18;23.05;;;18.50;;
9563;SDS011;4820;50.870;4.702;2023-02-23T11:44:49;23.00;;;17.30;;
9563;SDS011;4820;50.870;4.702;2023-02-23T11:47:29;21.98;;;17.25;;
9563;SDS011;4820;50.870;4.702;2023-02-23T11:49:57;21.65;;;17.13;;
9563;SDS011;4820;50.870;4.702;2023-02-23T11:52:24;23.90;;;18.58;;
9563;SDS011;4820;50.870;4.702;2023-02-23T11:55:11;21.90;;;17.38;;
9563;SDS011;4820;50.870;4.702;2023-02-23T11:57:41;24.17;;;18.45;;
9563;SDS011;4820;50.870;4.702;2023-02-23T12:00:08;26.08;;;19.60;;
9563;SDS011;4820;50.870;4.702;2023-02-23T12:02:44;22.52;;;18.20;;
9563;SDS011;4820;50.870;4.702;2023-02-23T12:05:29;23.55;;;19.27;;
9563;SDS011;4820;50.870;4.702;2023-02-23T12:16:02;28.67;;;22.35;;
9563;SDS011;4820;50.870;4.702;2023-02-23T12:18:49;30.08;;;22.35;;
9563;SDS011;4820;50.870;4.702;2023-02-23T12:27:10;26.80;;;22.67;;
9563;SDS011;4820;50.870;4.702;2023-02-23T12:32:23;29.95;;;23.25;;
9563;SDS011;4820;50.870;4.702;2023-02-23T12:35:00;32.85;;;25.42;;
9563;SDS011;4820;50.870;4.702;2023-02-23T12:40:06;31.02;;;24.70;;
9563;SDS011;4820;50.870;4.702;2023-02-23T12:42:48;33.20;;;26.02;;
9563;SDS011;4820;50.870;4.702;2023-02-23T12:50:51;38.50;;;29.10;;
9563;SDS011;4820;50.870;4.702;2023-02-23T12:56:10;38.60;;;29.98;;
9563;SDS011;4820;50.870;4.702;2023-02-23T13:10:54;39.88;;;29.80;;
9563;SDS011;4820;50.870;4.702;2023-02-23T13:18:53;37.55;;;29.42;;
9563;SDS011;4820;50.870;4.702;2023-02-23T13:21:32;35.00;;;28.75;;
9563;SDS011;4820;50.870;4.702;2023-02-23T13:24:11;35.88;;;29.63;;
9563;SDS011;4820;50.870;4.702;2023-02-23T13:27:05;35.88;;;27.73;;
9563;SDS011;4820;50.870;4.702;2023-02-23T13:29:49;34.72;;;28.08;;
9563;SDS011;4820;50.870;4.702;2023-02-23T13:32:23;33.10;;;27.30;;
9563;SDS011;4820;50.870;4.702;2023-02-23T13:34:55;35.47;;;27.25;;
9563;SDS011;4820;50.870;4.702;2023-02-23T13:37:25;35.47;;;29.13;;
9563;SDS011;4820;50.870;4.702;2023-02-23T13:42:58;35.42;;;28.38;;
9563;SDS011;4820;50.870;4.702;2023-02-23T13:45:42;36.65;;;29.38;;
9563;SDS011;4820;50.870;4.702;2023-02-23T13:57:21;33.17;;;27.52;;
9563;SDS011;4820;50.870;4.702;2023-02-23T13:59:42;35.88;;;27.55;;
9563;SDS011;4820;50.870;4.702;2023-02-23T14:07:53;34.92;;;29.00;;
9563;SDS011;4820;50.870;4.702;2023-02-23T14:10:29;36.90;;;29.33;;
9563;SDS011;4820;50.870;4.702;2023-02-23T14:20:43;36.13;;;29.45;;
9563;SDS011;4820;50.870;4.702;2023-02-23T14:25:48;36.58;;;29.70;;
9563;SDS011;4820;50.870;4.702;2023-02-23T14:33:33;40.55;;;30.92;;
9563;SDS011;4820;50.870;4.702;2023-02-23T14:36:01;38.33;;;30.67;;
9563;SDS011;4820;50.870;4.702;2023-02-23T14:38:58;38.67;;;30.55;;
9563;SDS011;4820;50.870;4.702;2023-02-23T14:41:40;41.28;;;30.42;;
9563;SDS011;4820;50.870;4.702;2023-02-23T14:47:13;35.58;;;29.15;;
9563;SDS011;4820;50.870;4.702;2023-02-23T14:49:44;39.42;;;30.35;;
9563;SDS011;4820;50.870;4.702;2023-02-23T14:52:15;37.58;;;29.98;;
9563;SDS011;4820;50.870;4.702;2023-02-23T14:54:48;37.83;;;28.88;;
9563;SDS011;4820;50.870;4.702;2023-02-23T14:57:16;35.88;;;29.27;;
9563;SDS011;4820;50.870;4.702;2023-02-23T14:59:42;34.80;;;29.10;;
9563;SDS011;4820;50.870;4.702;2023-02-23T15:02:10;36.22;;;29.60;;
9563;SDS011;4820;50.870;4.702;2023-02-23T15:04:44;37.78;;;30.10;;
9563;SDS011;4820;50.870;4.702;2023-02-23T15:07:13;32.60;;;27.52;;
9563;SDS011;4820;50.870;4.702;2023-02-23T15:09:43;37.65;;;29.35;;
9563;SDS011;4820;50.870;4.702;2023-02-23T15:12:20;35.75;;;28.58;;
9563;SDS011;4820;50.870;4.702;2023-02-23T15:14:51;32.65;;;27.40;;
9563;SDS011;4820;50.870;4.702;2023-02-23T15:17:20;34.95;;;27.60;;
9563;SDS011;4820;50.870;4.702;2023-02-23T15:19:49;37.15;;;28.75;;
9563;SDS011;4820;50.870;4.702;2023-02-23T15:22:38;33.65;;;26.38;;
9563;SDS011;4820;50.870;4.702;2023-02-23T15:25:14;33.42;;;27.33;;
9563;SDS011;4820;50.870;4.702;2023-02-23T15:27:45;33.78;;;26.63;;
9563;SDS011;4820;50.870;4.702;2023-02-23T15:33:02;33.38;;;25.75;;
9563;SDS011;4820;50.870;4.702;2023-02-23T15:35:29;32.80;;;25.08;;
9563;SDS011;4820;50.870;4.702;2023-02-23T15:38:01;31.80;;;24.45;;
9563;SDS011;4820;50.870;4.702;2023-02-23T15:40:32;32.97;;;25.20;;
9563;SDS011;4820;50.870;4.702;2023-02-23T15:42:57;32.15;;;24.48;;
9563;SDS011;4820;50.870;4.702;2023-02-23T15:48:30;32.80;;;24.95;;
9563;SDS011;4820;50.870;4.702;2023-02-23T15:57:15;27.27;;;21.60;;
9563;SDS011;4820;50.870;4.702;2023-02-23T15:59:47;28.48;;;22.05;;
9563;SDS011;4820;50.870;4.702;2023-02-23T16:02:14;26.25;;;21.63;;
9563;SDS011;4820;50.870;4.702;2023-02-23T16:04:43;26.83;;;22.52;;
9563;SDS011;4820;50.870;4.702;2023-02-23T16:12:33;23.25;;;20.17;;
9563;SDS011;4820;50.870;4.702;2023-02-23T16:15:02;24.70;;;20.35;;
9563;SDS011;4820;50.870;4.702;2023-02-23T16:17:39;24.75;;;20.20;;
9563;SDS011;4820;50.870;4.702;2023-02-23T16:22:58;23.25;;;19.35;;
9563;SDS011;4820;50.870;4.702;2023-02-23T16:25:26;25.50;;;19.48;;
9563;SDS011;4820;50.870;4.702;2023-02-23T16:28:03;23.40;;;18.77;;
9563;SDS011;4820;50.870;4.702;2023-02-23T16:30:35;22.10;;;18.38;;
9563;SDS011;4820;50.870;4.702;2023-02-23T16:33:12;22.40;;;17.33;;
9563;SDS011;4820;50.870;4.702;2023-02-23T16:35:47;16.35;;;14.60;;
9563;SDS011;4820;50.870;4.702;2023-02-23T16:38:24;14.82;;;13.35;;
9563;SDS011;4820;50.870;4.702;2023-02-23T16:40:52;13.90;;;12.48;;
9563;SDS011;4820;50.870;4.702;2023-02-23T16:43:18;14.45;;;13.05;;
9563;SDS011;4820;50.870;4.702;2023-02-23T16:45:44;13.70;;;12.40;;
9563;SDS011;4820;50.870;4.702;2023-02-23T16:48:14;14.30;;;12.90;;
9563;SDS011;4820;50.870;4.702;2023-02-23T16:50:40;14.02;;;12.63;;
9563;SDS011;4820;50.870;4.702;2023-02-23T16:53:06;14.18;;;12.60;;
9563;SDS011;4820;50.870;4.702;2023-02-23T16:55:38;14.13;;;12.70;;
9563;SDS011;4820;50.870;4.702;2023-02-23T16:58:14;13.48;;;12.18;;
9563;SDS011;4820;50.870;4.702;2023-02-23T17:00:43;13.75;;;12.32;;
9563;SDS011;4820;50.870;4.702;2023-02-23T17:03:16;14.02;;;12.10;;
9563;SDS011;4820;50.870;4.702;2023-02-23T17:05:45;13.77;;;12.38;;
9563;SDS011;4820;50.870;4.702;2023-02-23T17:08:11;13.20;;;11.90;;
9563;SDS011;4820;50.870;4.702;2023-02-23T17:10:37;13.05;;;11.65;;
9563;SDS011;4820;50.870;4.702;2023-02-23T17:13:14;13.23;;;11.95;;
9563;SDS011;4820;50.870;4.702;2023-02-23T17:15:43;13.13;;;11.85;;
9563;SDS011;4820;50.870;4.702;2023-02-23T17:18:12;13.55;;;12.15;;
9563;SDS011;4820;50.870;4.702;2023-02-23T17:20:38;14.15;;;12.25;;
9563;SDS011;4820;50.870;4.702;2023-02-23T17:23:04;14.25;;;12.18;;
9563;SDS011;4820;50.870;4.702;2023-02-23T17:25:30;12.05;;;10.75;;
9563;SDS011;4820;50.870;4.702;2023-02-23T17:27:56;12.65;;;11.35;;
9563;SDS011;4820;50.870;4.702;2023-02-23T17:30:23;12.55;;;11.25;;
9563;SDS011;4820;50.870;4.702;2023-02-23T17:32:49;12.85;;;11.52;;
9563;SDS011;4820;50.870;4.702;2023-02-23T17:35:17;13.93;;;11.65;;
9563;SDS011;4820;50.870;4.702;2023-02-23T17:37:43;12.38;;;11.18;;
9563;SDS011;4820;50.870;4.702;2023-02-23T17:40:12;12.55;;;10.90;;
9563;SDS011;4820;50.870;4.702;2023-02-23T17:42:40;12.07;;;10.77;;
9563;SDS011;4820;50.870;4.702;2023-02-23T17:45:06;12.00;;;10.80;;
9563;SDS011;4820;50.870;4.702;2023-02-23T17:47:32;11.20;;;10.10;;
9563;SDS011;4820;50.870;4.702;2023-02-23T17:49:59;12.15;;;10.45;;
9563;SDS011;4820;50.870;4.702;2023-02-23T17:52:25;11.10;;;10.00;;
9563;SDS011;4820;50.870;4.702;2023-02-23T17:54:52;11.40;;;10.13;;
9563;SDS011;4820;50.870;4.702;2023-02-23T17:57:22;10.07;;;9.07;;
9563;SDS011;4820;50.870;4.702;2023-02-23T17:59:48;12.02;;;10.10;;
9563;SDS011;4820;50.870;4.702;2023-02-23T18:02:16;10.50;;;9.40;;
9563;SDS011;4820;50.870;4.702;2023-02-23T18:04:45;9.98;;;8.98;;
9563;SDS011;4820;50.870;4.702;2023-02-23T18:07:16;10.43;;;9.32;;
9563;SDS011;4820;50.870;4.702;2023-02-23T18:09:43;10.43;;;9.32;;
9563;SDS011;4820;50.870;4.702;2023-02-23T18:12:09;10.55;;;9.50;;